Thunderstorms From: 26-05-2018 09:00 Until: 27-05-2018 05:00 warning for: Thunderstorms Level: Yellow info button

Although rather usual in this region, locally or potentially dangerous phenomena are expected. (such as local winds, summer thunderstorms, rising streams or high waves) Be aware and pay attention to the latest weather updates, especially if you carry out activities exposed to weather or close to a stream or shoreline. 


Meteo18 Weather Cam more information Meteo18 Weather Cam


warning for Thunderstorms more information blitzortung!


Rain radar more information rain snow radar


Visit our other weather sites:

Template documentation
and downloads

And another site



Weather Underground History page Text

Daily Summary for April 6, 2017 Units:  English    Metric   Both
« Previous Day
Next Day »
Daily Weekly Monthly Yearly Custom
  High: Low: Average:
Temperature: TemperatureC °F 4.4 °F 8.3 °F
Dew Point: DewpointC °F 1.6 °F 3.5 °F
Humidity: Humidity % 53 % 72 %
Wind Speed: WindSpeedKMH mph 0.0 mph 12 mph
Wind Gust: WindSpeedGustKMH mph - -
Wind:- - ESE
Pressure: PressurehPa in 1027.0 in -
Precipitation: 0.0 in    
Historical Graphs
 
 
Tabular Data for April 6, 2017
Time Temperature Dew Point Pressure Wind Wind Speed Wind Gust Humidity Rainfall Rate (Hourly)
TemperatureC °F DewpointC °F PressurehPa in Calm     Humidity % HourlyPrecipMM in
00:02 8.9 °F 5.5 °F 1027.3 in NW 4.8 mph 12.9 mph 79 % 0.0 in
00:07 8.9 °F 5.5 °F 1027.0 in NNW 8.0 mph 16.1 mph 79 % 0.0 in
00:12 9.0 °F 5.6 °F 1027.3 in North 3.2 mph 16.1 mph 79 % 0.0 in
00:17 9.0 °F 5.6 °F 1027.3 in NNE 3.2 mph 14.5 mph 79 % 0.0 in
00:22 8.9 °F 5.5 °F 1027.3 in NE 3.2 mph 16.1 mph 79 % 0.0 in
00:27 8.9 °F 5.5 °F 1027.3 in North 3.2 mph 16.1 mph 79 % 0.0 in
00:32 8.9 °F 5.3 °F 1027.3 in NNW 3.2 mph 14.5 mph 78 % 0.0 in
00:42 8.9 °F 5.3 °F 1027.3 in NNW 6.4 mph 19.3 mph 78 % 0.0 in
00:47 9.0 °F 5.4 °F 1027.3 in NNE 4.8 mph 19.3 mph 78 % 0.0 in
00:52 8.9 °F 5.3 °F 1027.3 in NNW 6.4 mph 17.7 mph 78 % 0.0 in
00:57 8.9 °F 5.3 °F 1027.3 in North 6.4 mph 16.1 mph 78 % 0.0 in
01:02 8.9 °F 5.3 °F 1027.3 in NNW 11.3 mph 16.1 mph 78 % 0.0 in
01:12 8.8 °F 5.2 °F 1027.7 in NW 8.0 mph 22.5 mph 78 % 0.0 in
01:17 8.7 °F 5.1 °F 1027.3 in North 14.5 mph 22.5 mph 78 % 0.0 in
01:22 8.7 °F 5.1 °F 1027.7 in North 6.4 mph 22.5 mph 78 % 0.0 in
01:27 8.6 °F 5.0 °F 1027.3 in NNE 4.8 mph 22.5 mph 78 % 0.0 in
01:32 8.6 °F 5.2 °F 1027.3 in NNE 9.7 mph 22.5 mph 79 % 0.0 in
01:37 8.5 °F 5.1 °F 1027.3 in NE 8.0 mph 25.7 mph 79 % 0.0 in
01:42 8.4 °F 5.0 °F 1027.7 in North 17.7 mph 25.7 mph 79 % 0.0 in
01:47 8.4 °F 5.0 °F 1027.3 in North 11.3 mph 20.9 mph 79 % 0.0 in
01:57 8.2 °F 5.0 °F 1027.7 in North 17.7 mph 20.9 mph 80 % 0.0 in
02:02 8.2 °F 5.0 °F 1027.7 in NNE 8.0 mph 20.9 mph 80 % 0.0 in
02:07 8.0 °F 4.8 °F 1027.7 in NNW 11.3 mph 22.5 mph 80 % 0.0 in
02:12 7.9 °F 4.8 °F 1027.7 in NNE 3.2 mph 22.5 mph 81 % 0.0 in
02:17 7.8 °F 4.9 °F 1027.7 in North 12.9 mph 22.5 mph 82 % 0.0 in
02:22 7.7 °F 4.8 °F 1027.7 in NNE 11.3 mph 22.5 mph 82 % 0.0 in
02:27 7.6 °F 4.7 °F 1027.7 in NNW 22.5 mph 22.5 mph 82 % 0.0 in
02:32 7.4 °F 4.5 °F 1027.7 in North 4.8 mph 27.4 mph 82 % 0.0 in
02:37 7.4 °F 4.7 °F 1027.3 in NE 9.7 mph 27.4 mph 83 % 0.0 in
02:42 7.4 °F 4.7 °F 1027.7 in NNE 3.2 mph 27.4 mph 83 % 0.0 in
02:47 7.3 °F 4.6 °F 1027.3 in North 12.9 mph 24.1 mph 83 % 0.0 in
02:52 7.3 °F 4.6 °F 1027.3 in NW 3.2 mph 22.5 mph 83 % 0.0 in
02:57 7.2 °F 4.5 °F 1027.3 in NE 9.7 mph 22.5 mph 83 % 0.0 in
03:02 7.2 °F 4.5 °F 1027.3 in NE 8.0 mph 22.5 mph 83 % 0.0 in
03:12 7.1 °F 4.4 °F 1027.3 in North 9.7 mph 25.7 mph 83 % 0.0 in
03:17 7.0 °F 4.3 °F 1027.3 in NNE 8.0 mph 27.4 mph 83 % 0.0 in
03:22 6.9 °F 4.2 °F 1027.3 in NNE 6.4 mph 27.4 mph 83 % 0.0 in
03:27 6.8 °F 4.3 °F 1027.3 in NNE 8.0 mph 27.4 mph 84 % 0.0 in
03:32 6.7 °F 4.2 °F 1027.3 in NW 6.4 mph 20.9 mph 84 % 0.0 in
03:37 6.7 °F 4.2 °F 1027.3 in NNW 4.8 mph 17.7 mph 84 % 0.0 in
03:42 6.6 °F 4.1 °F 1027.3 in NNE 6.4 mph 16.1 mph 84 % 0.0 in
03:47 6.5 °F 4.2 °F 1027.3 in NNE 6.4 mph 20.9 mph 85 % 0.0 in
03:52 6.4 °F 4.1 °F 1027.0 in North 3.2 mph 20.9 mph 85 % 0.0 in
03:57 6.4 °F 4.1 °F 1027.3 in NNW 9.7 mph 17.7 mph 85 % 0.0 in
04:02 6.3 °F 4.0 °F 1027.3 in North 9.7 mph 17.7 mph 85 % 0.0 in
04:12 6.2 °F 3.9 °F 1027.3 in NNE 6.4 mph 19.3 mph 85 % 0.0 in
04:17 6.1 °F 3.8 °F 1027.3 in North 6.4 mph 19.3 mph 85 % 0.0 in
04:22 6.1 °F 3.8 °F 1027.3 in North 6.4 mph 17.7 mph 85 % 0.0 in
04:27 5.9 °F 3.7 °F 1027.3 in NNW 8.0 mph 17.7 mph 86 % 0.0 in
04:32 5.9 °F 3.7 °F 1027.3 in NNW 8.0 mph 17.7 mph 86 % 0.0 in
04:37 5.8 °F 3.6 °F 1027.0 in North 8.0 mph 19.3 mph 86 % 0.0 in
04:42 5.7 °F 3.5 °F 1027.0 in NNE 3.2 mph 19.3 mph 86 % 0.0 in
04:47 5.7 °F 3.5 °F 1027.0 in NNE 9.7 mph 19.3 mph 86 % 0.0 in
04:52 5.6 °F 3.4 °F 1027.0 in NNW 3.2 mph 16.1 mph 86 % 0.0 in
04:57 5.5 °F 3.3 °F 1027.0 in NNE 14.5 mph 16.1 mph 86 % 0.0 in
05:02 5.5 °F 3.3 °F 1027.0 in NW 3.2 mph 20.9 mph 86 % 0.0 in
05:07 5.4 °F 3.2 °F 1027.0 in NNE 16.1 mph 20.9 mph 86 % 0.0 in
05:12 5.5 °F 3.2 °F 1027.0 in NNW 9.7 mph 20.9 mph 85 % 0.0 in
05:17 5.4 °F 3.1 °F 1027.0 in North 6.4 mph 19.3 mph 85 % 0.0 in
05:22 5.4 °F 3.1 °F 1027.0 in North 8.0 mph 24.1 mph 85 % 0.0 in
05:32 5.3 °F 3.0 °F 1027.0 in NNE 8.0 mph 24.1 mph 85 % 0.0 in
05:37 5.2 °F 2.9 °F 1027.0 in NNE 11.3 mph 22.5 mph 85 % 0.0 in
05:42 5.2 °F 2.9 °F 1027.0 in ENE 4.8 mph 22.5 mph 85 % 0.0 in
05:47 5.1 °F 2.8 °F 1027.0 in North 8.0 mph 22.5 mph 85 % 0.0 in
05:52 5.2 °F 2.9 °F 1027.0 in ENE 11.3 mph 22.5 mph 85 % 0.0 in
05:57 5.1 °F 2.8 °F 1027.0 in NNE 12.9 mph 19.3 mph 85 % 0.0 in
06:02 5.1 °F 2.8 °F 1027.0 in NNW 6.4 mph 19.3 mph 85 % 0.0 in
06:07 4.9 °F 2.6 °F 1027.0 in North 4.8 mph 19.3 mph 85 % 0.0 in
06:12 5.0 °F 2.9 °F 1027.0 in North 9.7 mph 19.3 mph 86 % 0.0 in
06:17 5.0 °F 2.7 °F 1027.0 in North 4.8 mph 19.3 mph 85 % 0.0 in
06:22 4.9 °F 2.6 °F 1027.0 in NNE 6.4 mph 24.1 mph 85 % 0.0 in
06:27 4.9 °F 2.8 °F 1027.0 in NNE 11.3 mph 24.1 mph 86 % 0.0 in
06:32 4.9 °F 2.8 °F 1027.0 in NNE 17.7 mph 24.1 mph 86 % 0.0 in
06:37 4.9 °F 2.8 °F 1027.0 in ENE 9.7 mph 22.5 mph 86 % 0.0 in
06:42 4.8 °F 2.7 °F 1027.0 in NNE 6.4 mph 22.5 mph 86 % 0.0 in
06:47 4.8 °F 2.7 °F 1027.3 in NW 9.7 mph 22.5 mph 86 % 0.0 in
06:52 4.7 °F 2.6 °F 1027.0 in ENE 9.7 mph 22.5 mph 86 % 0.0 in
06:57 4.7 °F 2.6 °F 1027.3 in NE 9.7 mph 22.5 mph 86 % 0.0 in
07:02 4.6 °F 2.6 °F 1027.3 in NNW 8.0 mph 17.7 mph 87 % 0.0 in
07:07 4.6 °F 2.6 °F 1027.3 in NW 9.7 mph 20.9 mph 87 % 0.0 in
07:12 4.5 °F 2.5 °F 1027.3 in NNW 9.7 mph 20.9 mph 87 % 0.0 in
07:17 4.5 °F 2.5 °F 1027.3 in NE 9.7 mph 20.9 mph 87 % 0.0 in
07:22 4.4 °F 2.4 °F 1027.3 in NE 9.7 mph 25.7 mph 87 % 0.0 in
07:27 4.4 °F 2.6 °F 1027.3 in ENE 8.0 mph 25.7 mph 88 % 0.0 in
07:32 4.4 °F 2.6 °F 1027.7 in NNE 14.5 mph 19.3 mph 88 % 0.0 in
07:37 4.4 °F 2.6 °F 1027.7 in NW 4.8 mph 22.5 mph 88 % 0.0 in
07:47 4.4 °F 2.6 °F 1027.7 in North 8.0 mph 22.5 mph 88 % 0.0 in
07:52 4.5 °F 2.7 °F 1027.7 in North 9.7 mph 22.5 mph 88 % 0.0 in
07:57 4.6 °F 2.8 °F 1027.7 in NW 11.3 mph 20.9 mph 88 % 0.0 in
08:02 4.6 °F 2.6 °F 1027.7 in NNE 11.3 mph 22.5 mph 87 % 0.0 in
08:07 4.7 °F 2.7 °F 1027.7 in North 11.3 mph 22.5 mph 87 % 0.0 in
08:12 4.7 °F 2.7 °F 1027.7 in NNE 9.7 mph 20.9 mph 87 % 0.0 in
08:17 4.8 °F 2.8 °F 1027.7 in NNE 11.3 mph 20.9 mph 87 % 0.0 in
08:22 4.8 °F 2.8 °F 1028.0 in NE 17.7 mph 22.5 mph 87 % 0.0 in
08:27 4.9 °F 2.9 °F 1028.0 in NE 14.5 mph 25.7 mph 87 % 0.0 in
08:32 5.1 °F 3.1 °F 1028.0 in NNE 8.0 mph 25.7 mph 87 % 0.0 in
08:37 5.2 °F 3.1 °F 1028.0 in NE 16.1 mph 24.1 mph 86 % 0.0 in
08:42 5.3 °F 3.1 °F 1028.0 in North 14.5 mph 25.7 mph 86 % 0.0 in
08:52 5.7 °F 3.4 °F 1028.0 in NNW 19.3 mph 30.6 mph 85 % 0.0 in
08:57 5.9 °F 3.4 °F 1028.0 in NW 12.9 mph 38.6 mph 84 % 0.0 in
09:07 6.1 °F 3.4 °F 1028.0 in NE 24.1 mph 38.6 mph 83 % 0.0 in
09:12 6.2 °F 3.4 °F 1028.0 in NNE 14.5 mph 32.2 mph 82 % 0.0 in
09:17 6.3 °F 3.3 °F 1028.0 in NNE 16.1 mph 32.2 mph 81 % 0.0 in
09:22 6.4 °F 3.6 °F 1028.0 in NNE 11.3 mph 40.2 mph 82 % 0.0 in
09:27 6.4 °F 3.4 °F 1028.0 in NE 22.5 mph 40.2 mph 81 % 0.0 in
09:32 6.4 °F 3.6 °F 1028.0 in NNE 4.8 mph 32.2 mph 82 % 0.0 in
09:37 6.4 °F 3.4 °F 1028.0 in NNW 19.3 mph 33.8 mph 81 % 0.0 in
09:42 6.4 °F 3.4 °F 1028.0 in NNE 24.1 mph 33.8 mph 81 % 0.0 in
09:47 6.5 °F 3.5 °F 1028.0 in NNE 20.9 mph 33.8 mph 81 % 0.0 in
09:52 6.6 °F 3.6 °F 1028.0 in North 8.0 mph 32.2 mph 81 % 0.0 in
09:57 6.9 °F 4.0 °F 1028.0 in NE 12.9 mph 32.2 mph 82 % 0.0 in
10:02 7.1 °F 4.1 °F 1028.3 in NNE 24.1 mph 32.2 mph 81 % 0.0 in
10:12 7.0 °F 4.0 °F 1028.3 in NNE 12.9 mph 32.2 mph 81 % 0.0 in
10:17 7.4 °F 4.4 °F 1028.0 in NNE 12.9 mph 32.2 mph 81 % 0.0 in
10:22 7.5 °F 4.1 °F 1028.0 in NE 12.9 mph 32.2 mph 79 % 0.0 in
10:27 7.9 °F 4.7 °F 1028.0 in NW 6.4 mph 22.5 mph 80 % 0.0 in
10:32 8.1 °F 4.1 °F 1028.0 in NE 9.7 mph 22.5 mph 76 % 0.0 in
10:37 8.4 °F 4.4 °F 1028.0 in NE 6.4 mph 27.4 mph 76 % 0.0 in
10:42 8.4 °F 3.6 °F 1028.3 in NNE 20.9 mph 27.4 mph 72 % 0.0 in
10:47 8.6 °F 4.0 °F 1028.0 in NE 9.7 mph 30.6 mph 73 % 0.0 in
10:52 8.9 °F 4.1 °F 1028.3 in ENE 14.5 mph 30.6 mph 72 % 0.0 in
10:57 8.8 °F 3.2 °F 1028.3 in NNE 20.9 mph 25.7 mph 68 % 0.0 in
11:02 8.6 °F 3.2 °F 1028.3 in NE 29.0 mph 29.0 mph 69 % 0.0 in
11:07 8.7 °F 3.1 °F 1028.3 in NNE 20.9 mph 33.8 mph 68 % 0.0 in
11:12 8.8 °F 3.2 °F 1028.3 in NNE 22.5 mph 33.8 mph 68 % 0.0 in
11:17 9.0 °F 3.2 °F 1028.0 in NE 22.5 mph 33.8 mph 67 % 0.0 in
11:22 9.2 °F 3.0 °F 1028.0 in NNE 20.9 mph 32.2 mph 65 % 0.0 in
11:27 9.4 °F 3.4 °F 1028.0 in NE 12.9 mph 32.2 mph 66 % 0.0 in
11:32 9.4 °F 3.2 °F 1028.0 in ENE 17.7 mph 30.6 mph 65 % 0.0 in
11:37 9.5 °F 2.6 °F 1027.7 in NE 27.4 mph 32.2 mph 62 % 0.0 in
11:42 9.4 °F 2.0 °F 1028.0 in NNE 20.9 mph 33.8 mph 60 % 0.0 in
11:47 9.4 °F 1.6 °F 1028.0 in NE 27.4 mph 38.6 mph 58 % 0.0 in
11:52 9.7 °F 2.3 °F 1027.7 in NE 12.9 mph 40.2 mph 60 % 0.0 in
11:57 9.9 °F 2.3 °F 1027.7 in NE 14.5 mph 40.2 mph 59 % 0.0 in
12:02 10.0 °F 2.1 °F 1028.0 in North 29.0 mph 40.2 mph 58 % 0.0 in
12:07 10.1 °F 2.4 °F 1028.0 in NE 30.6 mph 33.8 mph 59 % 0.0 in
12:12 10.3 °F 2.2 °F 1028.0 in NNE 40.2 mph 40.2 mph 57 % 0.0 in
12:17 10.2 °F 2.3 °F 1028.0 in NE 33.8 mph 41.8 mph 58 % 0.0 in
12:22 10.1 °F 2.2 °F 1028.0 in ENE 19.3 mph 41.8 mph 58 % 0.0 in
12:32 10.2 °F 1.6 °F 1027.7 in NNW 9.7 mph 38.6 mph 55 % 0.0 in
12:42 10.6 °F 2.4 °F 1027.7 in NNW 14.5 mph 40.2 mph 57 % 0.0 in
12:47 10.8 °F 2.4 °F 1027.7 in NNW 17.7 mph 40.2 mph 56 % 0.0 in
12:52 11.0 °F 2.6 °F 1027.7 in NNE 16.1 mph 35.4 mph 56 % 0.0 in
12:57 10.8 °F 2.1 °F 1027.7 in NE 30.6 mph 35.4 mph 55 % 0.0 in
13:02 10.8 °F 1.6 °F 1027.7 in NE 16.1 mph 35.4 mph 53 % 0.0 in
13:07 10.9 °F 2.5 °F 1027.7 in ENE 24.1 mph 38.6 mph 56 % 0.0 in
13:12 10.9 °F 1.7 °F 1027.7 in NE 19.3 mph 38.6 mph 53 % 0.0 in
13:17 11.1 °F 2.4 °F 1027.7 in NW 9.7 mph 37.0 mph 55 % 0.0 in
13:22 11.3 °F 2.8 °F 1027.7 in NE 11.3 mph 37.0 mph 56 % 0.0 in
13:27 11.4 °F 2.7 °F 1027.7 in NNE 20.9 mph 37.0 mph 55 % 0.0 in
13:32 11.5 °F 2.5 °F 1027.7 in NE 20.9 mph 35.4 mph 54 % 0.0 in
13:37 11.4 °F 2.4 °F 1027.7 in NNE 16.1 mph 35.4 mph 54 % 0.0 in
13:42 11.6 °F 3.1 °F 1027.7 in ENE 19.3 mph 35.4 mph 56 % 0.0 in
13:47 11.4 °F 2.7 °F 1027.7 in North 19.3 mph 32.2 mph 55 % 0.0 in
13:52 11.7 °F 3.0 °F 1027.7 in North 20.9 mph 30.6 mph 55 % 0.0 in
13:57 11.5 °F 3.3 °F 1027.7 in North 20.9 mph 30.6 mph 57 % 0.0 in
14:02 11.8 °F 3.8 °F 1027.7 in NNW 11.3 mph 29.0 mph 58 % 0.0 in
14:07 11.8 °F 3.0 °F 1027.7 in NNE 19.3 mph 30.6 mph 55 % 0.0 in
14:12 11.7 °F 3.0 °F 1027.7 in NE 12.9 mph 30.6 mph 55 % 0.0 in
14:17 11.7 °F 3.0 °F 1027.7 in NE 11.3 mph 35.4 mph 55 % 0.0 in
14:22 11.7 °F 3.2 °F 1027.3 in North 9.7 mph 35.4 mph 56 % 0.0 in
14:27 11.8 °F 2.8 °F 1027.3 in North 17.7 mph 35.4 mph 54 % 0.0 in
14:32 11.8 °F 3.6 °F 1027.3 in NE 27.4 mph 35.4 mph 57 % 0.0 in
14:37 11.8 °F 3.3 °F 1027.3 in North 11.3 mph 40.2 mph 56 % 0.0 in
14:42 11.9 °F 3.4 °F 1027.3 in NE 17.7 mph 40.2 mph 56 % 0.0 in
14:47 11.8 °F 3.0 °F 1027.3 in NNE 17.7 mph 32.2 mph 55 % 0.0 in
14:52 11.9 °F 3.9 °F 1027.3 in NNE 6.4 mph 30.6 mph 58 % 0.0 in
14:57 11.9 °F 3.4 °F 1027.3 in North 17.7 mph 30.6 mph 56 % 0.0 in
15:02 11.9 °F 3.1 °F 1027.3 in NNE 29.0 mph 35.4 mph 55 % 0.0 in
15:07 11.8 °F 3.6 °F 1027.3 in North 17.7 mph 35.4 mph 57 % 0.0 in
15:12 11.8 °F 3.6 °F 1027.3 in NNE 9.7 mph 35.4 mph 57 % 0.0 in
15:17 11.9 °F 3.6 °F 1027.3 in NNE 25.7 mph 35.4 mph 57 % 0.0 in
15:22 12.0 °F 3.7 °F 1027.0 in NNE 16.1 mph 30.6 mph 57 % 0.0 in
15:27 11.9 °F 3.6 °F 1027.0 in NNE 19.3 mph 32.2 mph 57 % 0.0 in
15:32 11.8 °F 3.6 °F 1027.0 in NNE 25.7 mph 37.0 mph 57 % 0.0 in
15:37 11.7 °F 3.0 °F 1027.0 in NNE 25.7 mph 37.0 mph 55 % 0.0 in
15:42 11.7 °F 3.2 °F 1027.0 in ENE 16.1 mph 37.0 mph 56 % 0.0 in
15:47 11.7 °F 3.5 °F 1027.0 in ENE 19.3 mph 37.0 mph 57 % 0.0 in
15:52 11.8 °F 3.8 °F 1027.0 in NNW 25.7 mph 37.0 mph 58 % 0.0 in
15:57 11.9 °F 4.1 °F 1027.0 in NNW 11.3 mph 30.6 mph 59 % 0.0 in
16:02 11.7 °F 4.2 °F 1027.0 in North 19.3 mph 30.6 mph 60 % 0.0 in
16:07 11.6 °F 4.1 °F 1027.0 in North 12.9 mph 37.0 mph 60 % 0.0 in
16:12 11.8 °F 4.3 °F 1027.0 in NNE 12.9 mph 37.0 mph 60 % 0.0 in
16:17 11.7 °F 4.2 °F 1027.0 in NE 27.4 mph 32.2 mph 60 % 0.0 in
16:22 11.3 °F 4.1 °F 1027.0 in NNW 19.3 mph 32.2 mph 61 % 0.0 in
16:27 11.7 °F 4.2 °F 1027.0 in NNE 17.7 mph 32.2 mph 60 % 0.0 in
16:32 11.7 °F 4.2 °F 1027.0 in NNE 19.3 mph 32.2 mph 60 % 0.0 in
16:37 11.4 °F 3.9 °F 1027.0 in North 9.7 mph 35.4 mph 60 % 0.0 in
16:42 11.4 °F 3.9 °F 1027.0 in North 20.9 mph 35.4 mph 60 % 0.0 in
16:47 11.1 °F 3.9 °F 1027.0 in NNE 12.9 mph 35.4 mph 61 % 0.0 in
16:52 11.0 °F 3.5 °F 1027.0 in NNE 19.3 mph 32.2 mph 60 % 0.0 in
16:57 10.9 °F 3.7 °F 1027.0 in NNW 14.5 mph 32.2 mph 61 % 0.0 in
17:02 11.1 °F 3.9 °F 1027.0 in NW 16.1 mph 32.2 mph 61 % 0.0 in
17:07 10.9 °F 3.7 °F 1027.0 in North 9.7 mph 33.8 mph 61 % 0.0 in
17:12 11.2 °F 4.0 °F 1027.0 in NE 14.5 mph 33.8 mph 61 % 0.0 in
17:17 11.2 °F 4.0 °F 1027.0 in North 20.9 mph 33.8 mph 61 % 0.0 in
17:22 11.1 °F 3.6 °F 1027.0 in NNE 19.3 mph 30.6 mph 60 % 0.0 in
17:27 10.8 °F 3.6 °F 1027.0 in NW 19.3 mph 32.2 mph 61 % 0.0 in
17:32 10.8 °F 3.8 °F 1027.0 in NNE 20.9 mph 32.2 mph 62 % 0.0 in
17:37 10.9 °F 3.9 °F 1027.0 in NE 19.3 mph 35.4 mph 62 % 0.0 in
17:42 10.9 °F 3.9 °F 1027.0 in NNE 16.1 mph 35.4 mph 62 % 0.0 in
17:47 11.0 °F 4.0 °F 1027.0 in NNE 16.1 mph 35.4 mph 62 % 0.0 in
17:52 10.9 °F 3.9 °F 1027.0 in NW 6.4 mph 29.0 mph 62 % 0.0 in
17:57 10.7 °F 3.9 °F 1027.0 in NNW 9.7 mph 29.0 mph 63 % 0.0 in
18:02 10.9 °F 3.9 °F 1027.0 in NNW 6.4 mph 25.7 mph 62 % 0.0 in
18:07 10.9 °F 3.7 °F 1027.0 in NNE 14.5 mph 29.0 mph 61 % 0.0 in
18:12 10.7 °F 3.7 °F 1027.0 in NNE 20.9 mph 37.0 mph 62 % 0.0 in
18:17 10.7 °F 3.9 °F 1027.3 in NE 24.1 mph 37.0 mph 63 % 0.0 in
18:22 10.6 °F 3.6 °F 1027.0 in NNW 9.7 mph 33.8 mph 62 % 0.0 in
18:32 10.6 °F 3.6 °F 1027.3 in SSW 8.0 mph 32.2 mph 62 % 0.0 in
18:37 10.4 °F 3.4 °F 1027.3 in NE 14.5 mph 29.0 mph 62 % 0.0 in
18:42 10.4 °F 3.7 °F 1027.3 in NE 19.3 mph 24.1 mph 63 % 0.0 in
18:52 10.2 °F 3.9 °F 1027.3 in NNE 16.1 mph 25.7 mph 65 % 0.0 in
18:57 10.1 °F 3.8 °F 1027.3 in North 16.1 mph 29.0 mph 65 % 0.0 in
19:02 10.1 °F 4.0 °F 1027.3 in NNW 8.0 mph 29.0 mph 66 % 0.0 in
19:07 10.2 °F 3.9 °F 1027.3 in NNE 8.0 mph 29.0 mph 65 % 0.0 in
19:12 10.2 °F 3.7 °F 1027.3 in NNE 14.5 mph 27.4 mph 64 % 0.0 in
19:17 10.2 °F 3.7 °F 1027.3 in North 6.4 mph 25.7 mph 64 % 0.0 in
19:22 10.3 °F 3.8 °F 1027.3 in North 11.3 mph 25.7 mph 64 % 0.0 in
19:27 10.2 °F 3.9 °F 1027.3 in North 8.0 mph 25.7 mph 65 % 0.0 in
19:32 9.9 °F 3.6 °F 1027.3 in NE 14.5 mph 25.7 mph 65 % 0.0 in
19:37 9.8 °F 3.7 °F 1027.3 in NW 6.4 mph 25.7 mph 66 % 0.0 in
19:42 9.7 °F 3.9 °F 1027.3 in North 16.1 mph 25.7 mph 67 % 0.0 in
19:47 9.6 °F 3.6 °F 1027.3 in ENE 8.0 mph 22.5 mph 66 % 0.0 in
19:57 9.3 °F 3.5 °F 1027.3 in North 8.0 mph 29.0 mph 67 % 0.0 in
20:02 9.2 °F 3.6 °F 1027.3 in North 6.4 mph 25.7 mph 68 % 0.0 in
20:07 9.1 °F 3.5 °F 1027.3 in NNE 4.8 mph 25.7 mph 68 % 0.0 in
20:12 8.9 °F 3.5 °F 1027.3 in NNW 4.8 mph 25.7 mph 69 % 0.0 in
20:17 8.9 °F 3.5 °F 1027.3 in NNE 11.3 mph 25.7 mph 69 % 0.0 in
20:22 8.7 °F 3.5 °F 1027.3 in North 11.3 mph 22.5 mph 70 % 0.0 in
20:27 8.7 °F 3.5 °F 1027.3 in NNE 25.7 mph 27.4 mph 70 % 0.0 in
20:32 8.7 °F 3.3 °F 1027.3 in NE 8.0 mph 29.0 mph 69 % 0.0 in
20:37 8.7 °F 3.3 °F 1027.3 in NNE 6.4 mph 29.0 mph 69 % 0.0 in
20:42 8.7 °F 3.5 °F 1027.3 in NNE 9.7 mph 29.0 mph 70 % 0.0 in
20:47 8.5 °F 3.3 °F 1027.3 in NNE 8.0 mph 25.7 mph 70 % 0.0 in
20:52 8.3 °F 3.4 °F 1027.3 in NNE 11.3 mph 20.9 mph 71 % 0.0 in
20:57 8.2 °F 3.5 °F 1027.3 in NNE 8.0 mph 16.1 mph 72 % 0.0 in
21:02 8.1 °F 3.4 °F 1027.7 in NE 9.7 mph 16.1 mph 72 % 0.0 in
21:07 8.1 °F 3.4 °F 1027.7 in North 4.8 mph 14.5 mph 72 % 0.0 in
21:12 7.9 °F 3.4 °F 1027.7 in NE 11.3 mph 14.5 mph 73 % 0.0 in
21:17 7.9 °F 3.4 °F 1027.7 in NE 11.3 mph 14.5 mph 73 % 0.0 in
21:22 7.8 °F 3.3 °F 1027.7 in NNW 1.6 mph 12.9 mph 73 % 0.0 in
21:27 7.8 °F 3.3 °F 1027.7 in NNE 4.8 mph 12.9 mph 73 % 0.0 in
21:32 7.7 °F 3.4 °F 1027.7 in NE 6.4 mph 16.1 mph 74 % 0.0 in
21:42 7.6 °F 3.3 °F 1027.7 in NNE 11.3 mph 12.9 mph 74 % 0.0 in
21:47 7.5 °F 3.4 °F 1027.7 in North 4.8 mph 12.9 mph 75 % 0.0 in
21:52 7.5 °F 3.4 °F 1027.7 in North 4.8 mph 16.1 mph 75 % 0.0 in
21:57 7.5 °F 3.4 °F 1027.7 in NE 1.6 mph 16.1 mph 75 % 0.0 in
22:02 7.5 °F 3.4 °F 1027.7 in NE 3.2 mph 16.1 mph 75 % 0.0 in
22:07 7.5 °F 3.4 °F 1027.7 in NE 3.2 mph 14.5 mph 75 % 0.0 in
22:12 7.5 °F 3.4 °F 1027.7 in NNE 8.0 mph 14.5 mph 75 % 0.0 in
22:17 7.3 °F 3.2 °F 1027.7 in NNE 6.4 mph 14.5 mph 75 % 0.0 in
22:22 7.3 °F 3.3 °F 1028.0 in NE 3.2 mph 14.5 mph 76 % 0.0 in
22:27 7.2 °F 3.3 °F 1028.0 in North 4.8 mph 14.5 mph 76 % 0.0 in
22:32 7.2 °F 3.3 °F 1028.0 in Calm   14.5 mph 76 % 0.0 in
22:37 7.1 °F 3.3 °F 1028.0 in NNE 3.2 mph 11.3 mph 77 % 0.0 in
22:42 7.1 °F 3.3 °F 1028.0 in NNW 1.6 mph 12.9 mph 77 % 0.0 in
22:52 6.8 °F 3.1 °F 1028.0 in NE 8.0 mph 12.9 mph 77 % 0.0 in
22:57 6.8 °F 3.2 °F 1028.0 in NNW 6.4 mph 9.7 mph 78 % 0.0 in
23:02 6.8 °F 3.2 °F 1028.0 in Calm   9.7 mph 78 % 0.0 in
23:12 6.6 °F 3.0 °F 1028.0 in WNW 1.6 mph 11.3 mph 78 % 0.0 in
23:17 6.4 °F 2.8 °F 1028.0 in NW 1.6 mph 4.8 mph 78 % 0.0 in
23:22 6.3 °F 2.9 °F 1028.0 in Calm   4.8 mph 79 % 0.0 in
23:27 6.3 °F 3.1 °F 1028.0 in NW 3.2 mph 4.8 mph 80 % 0.0 in
23:32 6.3 °F 3.1 °F 1028.0 in North 1.6 mph 4.8 mph 80 % 0.0 in
23:37 6.2 °F 3.0 °F 1028.0 in Calm   4.8 mph 80 % 0.0 in
23:42 6.1 °F 2.9 °F 1028.0 in NNW 4.8 mph 4.8 mph 80 % 0.0 in
23:47 6.2 °F 3.0 °F 1028.0 in Calm   8.0 mph 80 % 0.0 in
23:52 6.1 °F 2.9 °F 1028.0 in NNW 1.6 mph 8.0 mph 80 % 0.0 in
23:57 6.0 °F 2.8 °F 1028.0 in NNW 1.6 mph 8.0 mph 80 % 0.0 in
Meteo18
Compliments of Weather Underground - 4 mb

Script developed by  Jim McMurry - jmcmurry@mwt.net Adapted for the template by  Wim van der Kuil - Leuven-Template.eu

You find our weather info also at:

European Weather Network

Weather Underground

Equipment we use:

Weather-station
Davis Vue

Weather-program
Meteobridge

Weather-server
Raspberry PI 2 B+

Provider
1 and 1

Davis Vue

Meteobridge

Raspberry PI 2 B+

1 and 1